Terminal Aerodrome Forecast
Issued by NWS

Home | Current Version | Previous Version | Text Only | Print | Product List | Glossary On
Versions: 1 2 3 4 5 6 7 8 9 10 11 12
429
FTUS45 KVEF 182320
TAFDAG
TAF
KDAG 182320Z 1900/1924 23010KT P6SM SCT100 BKN200
     FM190300 24014G22KT P6SM -SHRA SCT040 OVC080
     FM190600 24010KT P6SM -SHRA SCT040 OVC080
     FM191900 25015G25KT P6SM VCSH BKN080=

USA.gov is the U.S. government's official web portal to all federal, state and local government web resources and services.